createdAt,value
2023-03-28T00:02:48.789Z,9.60
2023-03-28T00:05:42.093Z,9.20
2023-03-28T00:08:31.565Z,9.70
2023-03-28T00:11:22.857Z,9.10
2023-03-28T00:14:14.255Z,9.60
2023-03-28T00:17:07.546Z,9.90
2023-03-28T00:19:58.420Z,9.27
2023-03-28T00:22:47.709Z,9.60
2023-03-28T00:25:40.207Z,9.60
2023-03-28T00:28:29.521Z,9.40
2023-03-28T00:31:19.104Z,9.40
2023-03-28T00:34:09.347Z,9.40
2023-03-28T00:37:02.487Z,9.60
2023-03-28T00:39:51.818Z,9.57
2023-03-28T00:42:43.947Z,9.30
2023-03-28T00:45:34.068Z,10.03
2023-03-28T00:48:23.546Z,9.73
2023-03-28T00:51:14.724Z,9.33
2023-03-28T00:54:09.556Z,9.63
2023-03-28T00:57:03.965Z,9.30
2023-03-28T00:59:53.946Z,9.50
2023-03-28T01:02:51.156Z,9.47
2023-03-28T01:05:41.546Z,9.63
2023-03-28T01:08:34.601Z,9.80
2023-03-28T01:11:26.497Z,9.40
2023-03-28T01:14:19.679Z,9.57
2023-03-28T01:17:10.945Z,9.83
2023-03-28T01:20:19.512Z,9.40
2023-03-28T01:23:54.862Z,9.97
2023-03-28T01:27:10.768Z,9.43
2023-03-28T01:30:51.818Z,9.40
2023-03-28T01:34:45.907Z,9.50
2023-03-28T01:37:46.250Z,9.40
2023-03-28T01:40:41.575Z,9.60
2023-03-28T01:43:43.479Z,9.60
2023-03-28T01:46:38.079Z,10.00
2023-03-28T01:49:37.280Z,10.07
2023-03-28T01:52:36.449Z,9.73
2023-03-28T01:55:34.206Z,9.60
2023-03-28T01:58:41.993Z,9.70
2023-03-28T02:01:49.455Z,9.53
2023-03-28T02:04:40.554Z,10.30
2023-03-28T02:07:31.827Z,9.67
2023-03-28T02:10:34.424Z,10.10
2023-03-28T02:13:38.251Z,9.77
2023-03-28T02:17:00.602Z,9.63
2023-03-28T02:20:00.779Z,10.47
2023-03-28T02:23:16.031Z,9.90
2023-03-28T02:26:27.312Z,9.40
2023-03-28T02:29:20.996Z,10.00
2023-03-28T02:32:21.984Z,9.40
2023-03-28T02:35:12.006Z,10.10
2023-03-28T02:38:12.938Z,10.00
2023-03-28T02:41:10.172Z,9.97
2023-03-28T02:44:27.045Z,9.60
2023-03-28T02:47:21.161Z,9.93
2023-03-28T02:50:22.919Z,9.60
2023-03-28T02:53:22.259Z,10.17
2023-03-28T02:56:19.275Z,9.93
2023-03-28T02:59:36.270Z,9.57
2023-03-28T03:02:25.829Z,10.13
2023-03-28T03:05:15.701Z,10.03
2023-03-28T03:08:05.271Z,10.20
2023-03-28T03:10:57.654Z,9.87
2023-03-28T03:13:46.969Z,9.90
2023-03-28T03:16:38.785Z,9.90
2023-03-28T03:19:30.544Z,11.53
2023-03-28T03:22:20.889Z,10.40
2023-03-28T03:25:14.699Z,9.60
2023-03-28T03:28:30.636Z,9.90
2023-03-28T03:31:20.164Z,10.50
2023-03-28T03:34:10.957Z,9.50
2023-03-28T03:37:06.079Z,9.73
2023-03-28T03:39:56.332Z,10.07
2023-03-28T03:42:52.373Z,10.00
2023-03-28T03:45:41.871Z,10.17
2023-03-28T03:48:31.791Z,10.17
2023-03-28T03:51:24.513Z,10.00
2023-03-28T03:54:17.197Z,10.33
2023-03-28T03:57:06.788Z,9.73
2023-03-28T03:59:57.199Z,9.77
2023-03-28T04:02:48.573Z,9.23
2023-03-28T04:05:46.780Z,9.83
2023-03-28T04:08:38.094Z,9.63
2023-03-28T04:11:28.232Z,9.70
2023-03-28T04:14:17.815Z,9.47
2023-03-28T04:17:07.333Z,9.57
2023-03-28T04:19:56.965Z,10.13
2023-03-28T04:22:48.560Z,9.90
2023-03-28T04:25:41.862Z,9.83
2023-03-28T04:28:39.315Z,9.93
2023-03-28T04:31:29.915Z,9.60
2023-03-28T04:34:45.824Z,9.53
2023-03-28T04:37:39.663Z,9.40
2023-03-28T04:40:30.973Z,9.60
2023-03-28T04:43:39.161Z,9.70
2023-03-28T04:46:29.662Z,9.80
2023-03-28T04:49:21.378Z,9.50
2023-03-28T04:52:10.994Z,9.73
2023-03-28T04:55:01.011Z,9.40
2023-03-28T04:57:50.409Z,10.00
2023-03-28T05:00:44.305Z,9.57
2023-03-28T05:03:52.253Z,9.97
2023-03-28T05:06:41.556Z,9.80
2023-03-28T05:09:36.290Z,9.60
2023-03-28T05:12:25.846Z,10.10
2023-03-28T05:15:24.499Z,9.63
2023-03-28T05:18:24.201Z,9.73
2023-03-28T05:21:13.591Z,9.60
2023-03-28T05:24:03.458Z,10.10
2023-03-28T05:26:52.793Z,10.23
2023-03-28T05:29:45.616Z,10.10
2023-03-28T05:32:35.470Z,9.90
2023-03-28T05:35:26.664Z,10.73
2023-03-28T05:38:16.874Z,9.80
2023-03-28T05:41:12.828Z,10.00
2023-03-28T05:44:02.175Z,9.90
2023-03-28T05:47:09.132Z,10.57
2023-03-28T05:49:58.847Z,9.70
2023-03-28T05:52:49.605Z,10.00
2023-03-28T05:55:39.029Z,10.20
2023-03-28T05:58:28.370Z,9.97
2023-03-28T06:01:18.991Z,10.60
2023-03-28T06:04:13.339Z,10.40
2023-03-28T06:07:03.537Z,10.10
2023-03-28T06:09:54.323Z,10.83
2023-03-28T06:12:43.716Z,10.17
2023-03-28T06:15:33.485Z,10.10
2023-03-28T06:18:23.450Z,9.70
2023-03-28T06:21:12.747Z,10.50
2023-03-28T06:24:02.179Z,10.73
2023-03-28T06:26:56.889Z,10.80
2023-03-28T06:29:47.396Z,10.63
2023-03-28T06:32:36.828Z,10.80
2023-03-28T06:35:26.237Z,10.47
2023-03-28T06:38:16.874Z,10.20
2023-03-28T06:41:11.707Z,10.97
2023-03-28T06:44:02.453Z,10.23
2023-03-28T06:47:23.028Z,9.60
2023-03-28T06:50:13.308Z,10.23
2023-03-28T06:53:21.116Z,9.80
2023-03-28T06:56:11.866Z,12.17
2023-03-28T06:59:03.041Z,10.10
2023-03-28T07:01:55.288Z,9.80
2023-03-28T07:04:49.793Z,10.40
2023-03-28T07:07:39.576Z,9.70
2023-03-28T07:10:29.112Z,9.93
2023-03-28T07:13:18.624Z,10.13
2023-03-28T07:16:31.518Z,10.17
2023-03-28T07:19:22.355Z,10.00
2023-03-28T07:22:12.116Z,10.00
2023-03-28T07:25:01.491Z,9.97
2023-03-28T07:27:50.916Z,10.30
2023-03-28T07:30:40.498Z,9.97
2023-03-28T07:33:36.837Z,10.43
2023-03-28T07:36:32.137Z,10.30
2023-03-28T07:39:30.780Z,10.00
2023-03-28T07:42:23.190Z,9.60
2023-03-28T07:45:13.138Z,9.50
2023-03-28T07:48:02.556Z,9.77
2023-03-28T07:50:54.100Z,9.77
2023-03-28T07:53:43.743Z,9.50
2023-03-28T07:56:33.194Z,9.30
2023-03-28T07:59:37.264Z,9.20
2023-03-28T08:02:26.753Z,9.30
2023-03-28T08:05:16.589Z,8.90
2023-03-28T08:08:08.553Z,9.10
2023-03-28T08:10:59.251Z,9.93
2023-03-28T08:13:49.930Z,9.40
2023-03-28T08:16:45.885Z,9.17
2023-03-28T08:19:35.499Z,9.20
2023-03-28T08:22:50.972Z,9.20
2023-03-28T08:26:07.360Z,9.33
2023-03-28T08:28:59.739Z,9.33
2023-03-28T08:31:53.517Z,9.00
2023-03-28T08:34:43.923Z,9.40
2023-03-28T08:37:50.336Z,9.63
2023-03-28T08:40:52.617Z,9.47
2023-03-28T08:44:21.793Z,9.40
2023-03-28T08:47:21.415Z,8.90
2023-03-28T08:50:17.880Z,8.87
2023-03-28T08:53:21.614Z,9.17
2023-03-28T08:56:13.202Z,8.93
2023-03-28T08:59:10.426Z,8.67
2023-03-28T09:02:00.313Z,8.53
2023-03-28T09:04:50.771Z,9.07
2023-03-28T09:07:54.758Z,9.07
2023-03-28T09:10:47.515Z,8.97
2023-03-28T09:13:46.468Z,8.87
2023-03-28T09:16:58.597Z,8.80
2023-03-28T09:20:11.336Z,8.70
2023-03-28T09:23:36.486Z,8.60
2023-03-28T09:27:07.765Z,8.50
2023-03-28T09:30:19.102Z,8.80
2023-03-28T09:33:19.270Z,8.80
2023-03-28T09:36:14.713Z,8.90
2023-03-28T09:39:14.576Z,9.33
2023-03-28T09:42:12.489Z,9.10
2023-03-28T09:45:54.240Z,8.87
2023-03-28T09:49:03.804Z,9.00
2023-03-28T09:51:58.912Z,9.10
2023-03-28T09:54:49.821Z,9.00
2023-03-28T09:58:03.170Z,8.97
2023-03-28T10:00:56.087Z,8.90
2023-03-28T10:04:12.834Z,9.07
2023-03-28T10:07:43.661Z,9.20
2023-03-28T10:11:03.246Z,8.90
2023-03-28T10:13:55.584Z,9.53
2023-03-28T10:16:47.156Z,8.77
2023-03-28T10:20:05.472Z,8.90
2023-03-28T10:22:58.588Z,9.00
2023-03-28T10:25:54.113Z,8.90
2023-03-28T10:28:44.391Z,9.60
2023-03-28T10:31:36.227Z,8.90
2023-03-28T10:35:03.726Z,9.20
2023-03-28T10:38:05.108Z,9.50
2023-03-28T10:41:25.705Z,9.37
2023-03-28T10:44:37.386Z,9.33
2023-03-28T10:47:33.413Z,9.30
2023-03-28T10:50:36.891Z,9.13
2023-03-28T10:53:51.317Z,9.10
2023-03-28T10:56:52.737Z,8.90
2023-03-28T10:59:53.081Z,9.00
2023-03-28T11:03:19.983Z,9.20
2023-03-28T11:06:19.042Z,12.00
2023-03-28T11:09:17.654Z,9.20
2023-03-28T11:12:55.492Z,9.60
2023-03-28T11:15:59.407Z,9.33
2023-03-28T11:19:11.346Z,9.00
2023-03-28T11:22:17.480Z,9.00
2023-03-28T11:25:25.127Z,8.97
2023-03-28T11:28:48.520Z,9.20
2023-03-28T11:31:48.838Z,9.10
2023-03-28T11:34:44.278Z,9.40
2023-03-28T11:37:43.120Z,9.30
2023-03-28T11:40:41.105Z,9.20
2023-03-28T11:43:40.337Z,9.97
2023-03-28T11:46:34.389Z,10.07
2023-03-28T11:49:32.273Z,9.60
2023-03-28T11:52:27.046Z,10.30
2023-03-28T11:55:24.279Z,10.03
2023-03-28T11:58:23.858Z,10.20
2023-03-28T12:01:17.890Z,10.13
2023-03-28T12:04:14.864Z,10.33
2023-03-28T12:07:19.168Z,9.70
2023-03-28T12:10:24.762Z,9.60
2023-03-28T12:13:20.246Z,10.03
2023-03-28T12:16:26.092Z,10.03
2023-03-28T12:19:19.230Z,10.03
2023-03-28T12:22:22.755Z,9.77
2023-03-28T12:25:29.215Z,9.70
2023-03-28T12:28:28.565Z,10.10
2023-03-28T12:31:26.546Z,9.43
2023-03-28T12:34:31.913Z,9.57
2023-03-28T12:37:53.063Z,9.37
2023-03-28T12:40:55.870Z,9.67
2023-03-28T12:43:52.454Z,9.73
2023-03-28T12:46:52.596Z,9.57
2023-03-28T12:49:50.422Z,9.60
2023-03-28T12:52:45.388Z,10.37
2023-03-28T12:55:48.447Z,9.50
2023-03-28T12:58:46.272Z,9.77
2023-03-28T13:01:49.396Z,9.60
2023-03-28T13:04:57.720Z,9.50
2023-03-28T13:08:02.009Z,9.80
2023-03-28T13:11:09.663Z,10.57
2023-03-28T13:14:13.649Z,10.23
2023-03-28T13:17:17.593Z,9.93
2023-03-28T13:20:27.584Z,9.77
2023-03-28T13:23:17.985Z,9.50
2023-03-28T13:26:08.459Z,9.40
2023-03-28T13:29:02.432Z,10.07
2023-03-28T13:32:28.242Z,9.80
2023-03-28T13:35:47.696Z,13.23
2023-03-28T13:38:48.528Z,9.70
2023-03-28T13:41:58.352Z,10.00
2023-03-28T13:44:52.869Z,9.60
2023-03-28T13:47:45.705Z,11.77
2023-03-28T13:50:37.885Z,10.03
2023-03-28T13:53:34.688Z,9.60
2023-03-28T13:56:36.788Z,9.80
2023-03-28T13:59:34.146Z,9.80
2023-03-28T14:02:36.581Z,9.87
2023-03-28T14:05:28.084Z,9.90
2023-03-28T14:08:25.400Z,10.00
2023-03-28T14:11:19.236Z,9.73
2023-03-28T14:14:14.790Z,9.93
2023-03-28T14:17:07.033Z,9.50
2023-03-28T14:20:01.470Z,10.00
2023-03-28T14:23:00.298Z,10.07
2023-03-28T14:25:51.008Z,10.27
2023-03-28T14:28:42.430Z,9.77
2023-03-28T14:31:37.396Z,10.20
2023-03-28T14:34:32.176Z,10.00
2023-03-28T14:37:23.643Z,9.73
2023-03-28T14:40:23.037Z,10.30
2023-03-28T14:43:24.700Z,9.80
2023-03-28T14:46:14.259Z,9.87
2023-03-28T14:49:06.383Z,10.10
2023-03-28T14:51:58.190Z,9.70
2023-03-28T14:54:50.838Z,10.00
2023-03-28T14:57:40.639Z,10.20
2023-03-28T15:00:38.674Z,10.30
2023-03-28T15:03:39.712Z,9.60
2023-03-28T15:06:30.636Z,10.10
2023-03-28T15:09:32.519Z,10.10
2023-03-28T15:12:24.048Z,9.80
2023-03-28T15:15:22.218Z,9.90
2023-03-28T15:18:16.600Z,9.73
2023-03-28T15:21:09.607Z,9.90
2023-03-28T15:24:02.903Z,10.10
2023-03-28T15:26:58.517Z,10.50
2023-03-28T15:29:49.388Z,10.40
2023-03-28T15:32:38.874Z,10.30
2023-03-28T15:35:39.082Z,10.00
2023-03-28T15:38:29.229Z,10.43
2023-03-28T15:41:28.874Z,9.80
2023-03-28T15:44:29.770Z,10.10
2023-03-28T15:47:25.643Z,9.60
2023-03-28T15:50:29.556Z,9.93
2023-03-28T15:53:20.686Z,9.80
2023-03-28T15:56:26.778Z,10.13
2023-03-28T15:59:31.670Z,10.20
2023-03-28T16:02:33.429Z,9.73
2023-03-28T16:05:37.631Z,9.90
2023-03-28T16:08:32.688Z,10.33
2023-03-28T16:11:24.304Z,10.23
2023-03-28T16:14:32.245Z,10.60
2023-03-28T16:17:37.888Z,11.93
2023-03-28T16:20:49.872Z,10.17
2023-03-28T16:23:39.359Z,10.90
2023-03-28T16:26:28.888Z,9.80
2023-03-28T16:29:18.301Z,11.43
2023-03-28T16:32:08.400Z,10.17
2023-03-28T16:34:59.136Z,9.67
2023-03-28T16:37:48.662Z,10.07
2023-03-28T16:40:37.970Z,10.53
2023-03-28T16:43:27.334Z,9.80
2023-03-28T16:46:16.778Z,10.30
2023-03-28T16:49:06.424Z,9.97
2023-03-28T16:51:57.895Z,10.17
2023-03-28T16:54:48.580Z,10.10
2023-03-28T16:57:38.279Z,9.93
2023-03-28T17:00:28.691Z,10.07
2023-03-28T17:03:18.306Z,9.80
2023-03-28T17:06:11.362Z,10.00
2023-03-28T17:09:04.715Z,10.07
2023-03-28T17:11:54.002Z,9.87
2023-03-28T17:14:43.511Z,10.00
2023-03-28T17:17:33.027Z,9.50
2023-03-28T17:20:22.623Z,10.20
2023-03-28T17:23:12.362Z,10.00
2023-03-28T17:26:03.771Z,9.90
2023-03-28T17:28:58.156Z,10.23
2023-03-28T17:31:47.776Z,9.87
2023-03-28T17:34:37.129Z,9.63
2023-03-28T17:37:26.523Z,9.80
2023-03-28T17:40:15.864Z,9.90
2023-03-28T17:43:07.755Z,10.40
2023-03-28T17:45:57.156Z,9.77
2023-03-28T17:48:46.616Z,10.00
2023-03-28T17:51:36.046Z,10.23
2023-03-28T17:54:25.644Z,11.13
2023-03-28T17:57:15.060Z,9.73
2023-03-28T18:00:07.927Z,10.40
2023-03-28T18:03:17.846Z,9.80
2023-03-28T18:06:24.935Z,9.97
2023-03-28T18:09:15.666Z,9.87
2023-03-28T18:12:05.137Z,10.20
2023-03-28T18:14:54.471Z,10.37
2023-03-28T18:17:45.582Z,9.63
2023-03-28T18:20:37.387Z,10.30
2023-03-28T18:23:27.001Z,10.57
2023-03-28T18:26:16.520Z,10.90
2023-03-28T18:29:05.930Z,10.67
2023-03-28T18:31:55.790Z,10.80
2023-03-28T18:34:47.028Z,10.63
2023-03-28T18:37:36.746Z,10.57
2023-03-28T18:40:26.462Z,11.17
2023-03-28T18:43:15.794Z,10.83
2023-03-28T18:46:07.778Z,10.80
2023-03-28T18:48:57.627Z,10.97
2023-03-28T18:51:49.244Z,9.80
2023-03-28T18:54:38.834Z,10.10
2023-03-28T18:57:28.642Z,10.30
2023-03-28T19:00:20.058Z,10.00
2023-03-28T19:03:10.326Z,10.77
2023-03-28T19:06:01.908Z,9.90
2023-03-28T19:08:54.064Z,9.60
2023-03-28T19:11:43.560Z,10.13
2023-03-28T19:14:33.489Z,10.13
2023-03-28T19:17:22.871Z,10.73
2023-03-28T19:20:13.682Z,10.10
2023-03-28T19:23:03.113Z,10.43
2023-03-28T19:25:53.846Z,10.60
2023-03-28T19:28:43.445Z,10.77
2023-03-28T19:31:32.795Z,11.50
2023-03-28T19:34:22.791Z,12.40
2023-03-28T19:37:12.815Z,11.10
2023-03-28T19:40:08.483Z,11.77
2023-03-28T19:43:19.355Z,10.90
2023-03-28T19:46:30.966Z,11.03
2023-03-28T19:49:22.949Z,11.10
2023-03-28T19:52:12.833Z,11.30
2023-03-28T19:55:02.237Z,11.43
2023-03-28T19:57:51.773Z,11.43
2023-03-28T20:00:43.479Z,11.53
2023-03-28T20:03:33.522Z,11.07
2023-03-28T20:06:24.292Z,10.97
2023-03-28T20:09:13.653Z,10.77
2023-03-28T20:12:03.064Z,13.40
2023-03-28T20:14:53.458Z,10.50
2023-03-28T20:17:46.378Z,11.00
2023-03-28T20:20:49.428Z,10.93
2023-03-28T20:23:39.499Z,11.07
2023-03-28T20:26:28.839Z,13.33
2023-03-28T20:29:18.380Z,12.93
2023-03-28T20:32:09.919Z,11.20
2023-03-28T20:35:01.864Z,10.87
2023-03-28T20:37:52.210Z,11.03
2023-03-28T20:40:41.723Z,14.60
2023-03-28T20:43:36.867Z,11.20
2023-03-28T20:46:26.594Z,10.50
2023-03-28T20:49:17.972Z,11.33
2023-03-28T20:52:08.769Z,10.70
2023-03-28T20:54:59.038Z,10.90
2023-03-28T20:57:48.504Z,10.77
2023-03-28T21:00:39.982Z,10.90
2023-03-28T21:03:48.204Z,10.73
2023-03-28T21:06:43.301Z,10.50
2023-03-28T21:10:16.871Z,10.83
2023-03-28T21:13:07.561Z,10.67
2023-03-28T21:16:02.102Z,10.53
2023-03-28T21:19:03.338Z,10.77
2023-03-28T21:21:53.715Z,10.90
2023-03-28T21:24:44.711Z,10.77
2023-03-28T21:27:34.762Z,10.47
2023-03-28T21:30:24.170Z,10.67
2023-03-28T21:33:16.162Z,10.93
2023-03-28T21:36:07.688Z,10.87
2023-03-28T21:38:57.805Z,10.90
2023-03-28T21:41:48.601Z,10.67
2023-03-28T21:44:38.197Z,10.53
2023-03-28T21:47:42.884Z,10.53
2023-03-28T21:50:32.868Z,10.20
2023-03-28T21:53:30.852Z,9.90
2023-03-28T21:56:39.255Z,10.10
2023-03-28T21:59:46.409Z,10.20
2023-03-28T22:02:44.411Z,10.10
2023-03-28T22:05:45.021Z,10.13
2023-03-28T22:08:34.423Z,10.47
2023-03-28T22:11:30.636Z,10.43
2023-03-28T22:14:20.252Z,10.30
2023-03-28T22:17:10.970Z,10.07
2023-03-28T22:20:01.592Z,10.07
2023-03-28T22:22:51.024Z,10.57
2023-03-28T22:25:40.602Z,10.53
2023-03-28T22:28:30.041Z,11.37
2023-03-28T22:31:19.341Z,10.20
2023-03-28T22:34:10.558Z,10.20
2023-03-28T22:36:59.858Z,10.77
2023-03-28T22:39:49.105Z,10.30
2023-03-28T22:42:38.746Z,10.50
2023-03-28T22:45:28.589Z,10.50
2023-03-28T22:48:20.285Z,10.87
2023-03-28T22:51:12.986Z,10.70
2023-03-28T22:54:03.230Z,10.07
2023-03-28T22:56:52.685Z,10.60
2023-03-28T22:59:42.028Z,10.27
2023-03-28T23:02:31.911Z,10.00
2023-03-28T23:05:21.656Z,10.70
2023-03-28T23:08:12.842Z,10.37
2023-03-28T23:11:02.412Z,10.70
2023-03-28T23:13:51.862Z,11.60
2023-03-28T23:16:41.236Z,10.00
2023-03-28T23:19:31.245Z,10.30
2023-03-28T23:22:21.533Z,10.00
2023-03-28T23:25:13.595Z,11.53
2023-03-28T23:28:02.944Z,10.50
2023-03-28T23:30:52.249Z,10.00
2023-03-28T23:33:41.637Z,10.47
2023-03-28T23:36:30.903Z,9.87
2023-03-28T23:39:20.235Z,10.00
2023-03-28T23:42:10.863Z,9.77
2023-03-28T23:45:00.144Z,10.20
2023-03-28T23:47:49.506Z,9.87
2023-03-28T23:50:39.906Z,10.57
2023-03-28T23:53:29.232Z,10.00
2023-03-28T23:56:19.125Z,10.40
2023-03-28T23:59:09.896Z,9.60
